Automated Weather Station

Lita, Tayabas, Quezon


Readings

as of August 06, 2016 01:00 AM
Wind Speed
1.40 mm
Rainfall Amount
0.00 mm
Rainfall Intensity
0.00 mm
Air Temperature
mm
Wind Direction
293.00 mm
Air Humidity
88.40 mm

Data Source: PREDICT (Advanced Science and Technology Institute)

12 HOUR DATA

PREVIOUS DATA

From
To
DateTime Wind Speed Rain Amount Rain Intensity Air Temperature Air Pressure Wind Direction Air Humidity
August 06, 2016 01:00 AM 0.00 0.00 mm 0.00 25.50 986.15 0.00 86.90
August 06, 2016 12:00 AM 0.00 0.00 mm 0.00 25.40 986.82 0.00 88.90
August 05, 2016 11:15 PM 0.00 0.00 mm 0.00 25.20 987.22 0.00 90.20
August 05, 2016 10:45 PM 0.00 0.00 mm 0.00 25.40 987.22 0.00 91.50
August 05, 2016 10:30 PM 0.00 0.00 mm 0.00 25.60 987.22 0.00 90.10
August 05, 2016 10:15 PM 0.00 0.00 mm 0.00 25.60 987.22 0.00 90.30
August 05, 2016 10:00 PM 0.00 0.00 mm 0.00 25.50 987.49 0.00 90.20
August 05, 2016 09:45 PM 0.00 0.00 mm 0.00 25.40 987.49 0.00 90.10
August 05, 2016 09:30 PM 0.00 0.00 mm 0.00 25.40 987.62 0.00 89.70
August 05, 2016 09:15 PM 0.00 0.00 mm 0.00 25.60 987.75 0.00 90.20
August 05, 2016 09:00 PM 0.00 0.00 mm 0.00 25.40 987.89 0.00 90.70
August 05, 2016 08:45 PM 0.00 0.00 mm 0.00 25.40 987.75 0.00 90.90
August 05, 2016 08:30 PM 0.00 0.00 mm 0.00 25.60 987.62 0.00 90.70
August 05, 2016 08:15 PM 0.00 0.00 mm 0.00 25.80 987.89 0.00 90.10
August 05, 2016 08:00 PM 0.00 0.27 mm 0.00 25.40 987.49 0.00 90.40
August 05, 2016 07:45 PM 0.00 0.74 mm 0.20 25.20 987.22 0.00 91.00
August 05, 2016 07:30 PM 0.00 0.03 mm 0.30 25.00 987.35 0.00 90.90
August 05, 2016 07:15 PM 0.00 0.11 mm 0.00 24.60 987.22 0.00 92.10
August 05, 2016 07:00 PM 0.00 3.93 mm 0.00 24.70 987.35 0.00 92.90
August 05, 2016 06:45 PM 0.00 5.16 mm 39.10 25.10 987.22 0.00 90.60
August 05, 2016 06:30 PM 0.00 0.00 mm 0.00 25.50 987.35 0.00 90.10
August 05, 2016 06:15 PM 0.00 0.40 mm 0.00 25.70 986.42 0.00 90.60
August 05, 2016 06:00 PM 0.00 2.63 mm 5.40 25.90 986.15 0.00 89.80
August 05, 2016 05:45 PM 0.00 7.95 mm 3.30 25.90 985.89 0.00 86.10
August 05, 2016 05:30 PM 0.00 1.05 mm 45.60 27.60 985.62 0.00 82.00
August 05, 2016 05:15 PM 0.00 0.97 mm 0.20 28.70 985.62 0.00 73.40
August 05, 2016 05:00 PM 0.00 0.00 mm 0.00 29.30 985.22 0.00 69.20
August 05, 2016 04:45 PM 0.00 0.00 mm 0.00 30.10 985.49 0.00 78.90
August 05, 2016 04:30 PM 0.00 0.00 mm 0.00 30.40 984.82 0.00 77.20
August 05, 2016 04:15 PM 0.00 0.00 mm 0.00 30.90 984.55 0.00 76.30